Time;durP1;ratioP1;P1;durP2;ratioP2;P2;SDS_P1;SDS_P2;PMS_P1;PMS_P2;Temp;Humidity;BMP_temperature;BMP_pressure;BME280_temperature;BME280_humidity;BME280_pressure;Samples;Min_cycle;Max_cycle;Signal;HPM_P1;HPM_P2
2021/07/30 00:02:05;;;;;;;7.40;3.30;;;;;;;29.59;68.40;100722.94;5116475;27;70019;-32
2021/07/30 00:04:36;;;;;;;11.18;3.60;;;;;;;29.64;69.11;100724.16;5116081;27;66340;-33
2021/07/30 00:07:06;;;;;;;4.82;3.58;;;;;;;29.38;68.94;100682.69;5122276;27;69875;-32
2021/07/30 00:09:37;;;;;;;11.35;3.72;;;;;;;29.68;68.84;100731.66;5118862;27;65756;-31
2021/07/30 00:12:07;;;;;;;6.63;3.75;;;;;;;29.71;69.56;100736.63;5119152;27;69672;-32
2021/07/30 00:14:38;;;;;;;5.35;3.70;;;;;;;29.68;69.39;100731.66;5118683;27;66150;-33
2021/07/30 00:17:08;;;;;;;8.93;3.95;;;;;;;29.77;69.68;100743.03;5123103;27;70065;-33
2021/07/30 00:19:39;;;;;;;7.45;3.97;;;;;;;29.80;69.06;100746.13;5122202;27;65364;-33
2021/07/30 00:22:09;;;;;;;5.22;3.53;;;;;;;29.84;69.34;100752.78;5122815;27;70190;-33
2021/07/30 00:24:40;;;;;;;7.15;3.45;;;;;;;29.88;69.54;100763.97;5103765;27;66049;-32
2021/07/30 00:27:11;;;;;;;6.60;4.25;;;;;;;29.88;69.12;100755.88;5114015;27;70124;-33
2021/07/30 00:29:42;;;;;;;12.73;4.55;;;;;;;29.89;70.08;100775.63;5118073;27;66282;-32
2021/07/30 00:32:12;;;;;;;10.02;4.80;;;;;;;29.79;70.64;100766.09;5112525;27;70161;-32
2021/07/30 00:34:46;;;;;;;12.50;3.90;;;;;;;29.81;71.07;100766.72;5123157;27;66646;-33
2021/07/30 00:37:17;;;;;;;12.20;4.80;;;;;;;29.81;70.37;100764.03;5118203;27;71082;-33
2021/07/30 00:39:49;;;;;;;6.60;4.28;;;;;;;29.78;70.33;100760.91;5121492;27;67021;-33
2021/07/30 00:42:19;;;;;;;14.65;4.75;;;;;;;29.76;71.07;100771.13;5119071;27;69371;-32
2021/07/30 00:44:54;;;;;;;10.52;4.38;;;;;;;29.78;71.22;100780.69;5120000;27;65197;-33
2021/07/30 00:47:28;;;;;;;;;;;;;;;29.53;72.58;100785.09;5117713;27;69920;-32
2021/07/30 00:50:05;;;;;;;10.07;4.65;;;;;;;29.47;70.95;100729.22;5126395;27;65311;-32
2021/07/30 00:52:38;;;;;;;9.23;4.53;;;;;;;29.80;70.90;100792.09;5103574;27;70032;-31
2021/07/30 00:55:12;;;;;;;13.20;5.32;;;;;;;29.80;70.73;100794.78;5115957;27;66383;-32
2021/07/30 00:57:49;;;;;;;8.25;4.45;;;;;;;29.82;71.44;100798.13;5120748;27;70167;-32
2021/07/30 01:00:20;;;;;;;8.82;4.80;;;;;;;29.82;71.15;100800.81;5122465;27;66198;-31
2021/07/30 01:02:53;;;;;;;11.63;4.90;;;;;;;29.81;71.39;100801.88;5110168;27;70432;-31
2021/07/30 01:05:24;;;;;;;8.27;4.03;;;;;;;29.82;71.31;100795.41;5110556;27;66367;-32
2021/07/30 01:07:58;;;;;;;7.60;3.78;;;;;;;29.78;70.75;100783.38;5115385;27;69487;-31
2021/07/30 01:10:30;;;;;;;11.40;4.22;;;;;;;29.87;71.36;100793.97;5115080;27;66150;-32
2021/07/30 01:13:01;;;;;;;5.05;4.10;;;;;;;29.86;71.21;100797.69;5081486;27;69286;-33
2021/07/30 01:15:37;;;;;;;5.00;3.70;;;;;;;29.84;70.69;100790.63;5113105;27;65386;-34
2021/07/30 01:18:08;;;;;;;7.97;4.33;;;;;;;29.79;71.00;100774.22;5115690;27;70215;-32
2021/07/30 01:20:47;;;;;;;4.22;3.28;;;;;;;29.90;71.04;100801.63;5111237;27;65438;-33
2021/07/30 01:23:20;;;;;;;10.23;3.72;;;;;;;29.88;71.21;100801.84;5079342;27;70162;-33
2021/07/30 01:26:05;;;;;;;5.20;3.42;;;;;;;29.93;70.87;100809.31;5114919;27;65762;-33
2021/07/30 01:28:36;;;;;;;4.22;3.50;;;;;;;29.93;70.83;100812.03;5115302;27;70686;-33
2021/07/30 01:31:12;;;;;;;7.20;3.00;;;;;;;29.96;70.23;100815.13;5113532;27;66372;-33
2021/07/30 01:33:45;;;;;;;7.22;3.25;;;;;;;29.98;70.75;100817.63;5116769;27;70168;-33
2021/07/30 01:36:18;;;;;;;6.63;3.42;;;;;;;30.00;70.39;100820.91;5110427;27;66329;-32
2021/07/30 01:39:02;;;;;;;9.13;3.45;;;;;;;30.02;70.06;100829.66;5113004;27;69413;-32
2021/07/30 01:41:40;;;;;;;3.63;2.90;;;;;;;30.02;70.42;100818.81;5116201;27;66244;-32
2021/07/30 01:44:24;;;;;;;7.13;2.97;;;;;;;30.06;70.49;100833.56;5096440;27;69961;-32
2021/07/30 01:46:57;;;;;;;4.05;2.72;;;;;;;30.08;70.77;100833.38;5112062;27;66325;-32
2021/07/30 01:49:40;;;;;;;6.78;3.55;;;;;;;30.12;70.16;100819.19;5111098;27;69833;-33
2021/07/30 01:52:14;;;;;;;10.68;3.50;;;;;;;30.16;70.48;100823.13;5117446;27;67146;-33
2021/07/30 01:54:49;;;;;;;9.07;3.55;;;;;;;30.16;70.42;100820.41;5123563;27;68991;-34
2021/07/30 01:57:34;;;;;;;5.65;3.47;;;;;;;30.21;70.52;100817.06;5103024;27;66396;-33
2021/07/30 02:00:09;;;;;;;6.57;3.05;;;;;;;30.23;70.67;100810.41;5079288;27;70092;-33
2021/07/30 02:02:42;;;;;;;12.00;3.10;;;;;;;30.22;70.74;100811.44;5116468;27;66667;-33
2021/07/30 02:05:29;;;;;;;5.68;3.60;;;;;;;30.31;70.45;100824.72;5115066;27;70868;-35
2021/07/30 02:08:02;;;;;;;9.13;3.15;;;;;;;30.32;70.59;100819.09;5106332;27;65386;-33
2021/07/30 02:10:39;;;;;;;7.82;2.85;;;;;;;30.02;70.66;100770.16;5112187;27;70000;-34
2021/07/30 02:16:02;;;;;;;8.67;3.50;;;;;;;30.36;70.72;100824.91;5106642;27;69676;-34
2021/07/30 02:18:49;;;;;;;6.43;3.33;;;;;;;30.41;70.62;100838.63;5107415;27;66272;-34
2021/07/30 02:21:26;;;;;;;5.15;3.17;;;;;;;30.40;70.60;100836.97;5111017;27;70124;-32
2021/07/30 02:24:10;;;;;;;5.63;2.65;;;;;;;30.42;69.75;100826.72;5068377;27;65219;-34
2021/07/30 02:26:46;;;;;;;5.40;2.35;;;;;;;30.45;69.51;100829.00;5112730;27;70952;-34
2021/07/30 02:29:20;;;;;;;9.27;2.30;;;;;;;30.46;69.57;100825.25;5099793;27;65526;-32
2021/07/30 02:32:03;;;;;;;4.50;2.38;;;;;;;30.47;69.63;100827.72;5113726;27;69341;-33
2021/07/30 02:34:34;;;;;;;2.13;1.70;;;;;;;30.48;69.27;100817.75;5091151;27;66108;-34
2021/07/30 02:37:05;;;;;;;6.50;2.05;;;;;;;30.50;69.24;100800.22;5115644;27;70423;-33
2021/07/30 02:39:38;;;;;;;3.30;1.98;;;;;;;30.51;68.48;100809.19;5104262;27;65516;-34
2021/07/30 02:42:14;;;;;;;3.17;1.70;;;;;;;30.51;68.92;100809.19;5111462;27;70385;-34
2021/07/30 02:44:51;;;;;;;2.60;1.60;;;;;;;30.56;68.31;100800.41;5072443;27;66576;-34
2021/07/30 02:47:24;;;;;;;6.35;1.92;;;;;;;30.55;68.24;100796.03;5081319;27;70005;-35
2021/07/30 02:50:21;;;;;;;2.80;1.80;;;;;;;30.56;68.63;100803.94;5097632;27;65375;-42
2021/07/30 02:53:02;;;;;;;;;;;;;;;30.37;68.45;100794.06;5090004;27;70310;-34
2021/07/30 02:55:37;;;;;;;3.83;1.20;;;;;;;30.57;68.06;100783.94;5072110;27;65428;-33
2021/07/30 02:58:26;;;;;;;12.45;1.50;;;;;;;30.64;67.16;100787.41;5107624;27;70233;-33
2021/07/30 03:00:59;;;;;;;3.35;1.40;;;;;;;30.64;67.20;100790.13;5092510;27;65774;-34
2021/07/30 03:03:48;;;;;;;2.78;1.20;;;;;;;30.68;66.75;100796.78;5091911;27;70295;-34
2021/07/30 03:06:27;;;;;;;2.25;1.10;;;;;;;30.65;66.25;100780.97;5093270;27;66184;-33
2021/07/30 03:09:00;;;;;;;5.53;1.33;;;;;;;30.76;66.30;100786.69;5112554;27;70311;-33
2021/07/30 03:11:41;;;;;;;2.47;1.50;;;;;;;30.77;66.50;100799.19;5101640;27;65611;-33
2021/07/30 03:14:15;;;;;;;3.25;1.60;;;;;;;30.61;66.85;100752.66;5104531;27;69986;-34
2021/07/30 03:16:59;;;;;;;2.05;1.20;;;;;;;30.72;66.35;100779.00;5075728;27;65171;-33
2021/07/30 03:19:33;;;;;;;4.50;1.20;;;;;;;30.83;66.24;100776.69;5112028;27;69812;-35
2021/07/30 03:22:15;;;;;;;2.75;1.13;;;;;;;30.79;65.79;100759.19;5108847;27;65214;-34
2021/07/30 03:24:48;;;;;;;1.80;1.15;;;;;;;30.86;65.42;100771.63;5087493;27;70023;-36
2021/07/30 03:27:32;;;;;;;2.25;1.10;;;;;;;30.89;64.09;100754.09;5092784;27;64768;-34
2021/07/30 03:30:16;;;;;;;2.53;1.02;;;;;;;31.00;64.36;100756.06;5095072;27;69131;-34
2021/07/30 03:33:03;;;;;;;5.05;1.10;;;;;;;31.01;63.99;100756.91;5104877;27;65672;-39
2021/07/30 03:35:40;;;;;;;3.45;0.90;;;;;;;30.98;64.16;100747.38;5093403;27;69529;-35
2021/07/30 03:38:24;;;;;;;3.40;0.95;;;;;;;30.96;63.88;100744.03;5111842;27;65323;-36
2021/07/30 03:41:16;;;;;;;;;;;;;;;30.71;64.74;100736.75;5094978;27;70283;-37
2021/07/30 03:43:55;;;;;;;3.00;1.00;;;;;;;30.95;64.32;100734.25;5107474;27;66320;-38
2021/07/30 03:46:48;;;;;;;3.45;1.27;;;;;;;30.96;63.90;100727.78;5112123;27;69888;-37
2021/07/30 03:49:35;;;;;;;1.95;1.20;;;;;;;31.02;63.98;100731.50;5115880;27;65237;-37
2021/07/30 03:52:08;;;;;;;2.35;1.20;;;;;;;31.00;63.96;100723.56;5080861;27;69375;-38
2021/07/30 03:54:39;;;;;;;1.80;1.05;;;;;;;31.08;62.96;100728.69;5092253;27;65336;-36
2021/07/30 03:57:19;;;;;;;4.63;1.00;;;;;;;31.12;63.62;100715.50;5112574;27;70064;-40
2021/07/30 04:00:04;;;;;;;1.92;1.08;;;;;;;31.13;63.27;100700.94;5088764;27;66326;-37
2021/07/30 04:02:42;;;;;;;1.98;0.93;;;;;;;31.13;63.42;100692.81;5089468;27;69264;-37
2021/07/30 04:05:18;;;;;;;2.15;0.73;;;;;;;31.20;63.25;100700.84;5109572;27;66238;-36
2021/07/30 04:07:49;;;;;;;2.20;1.08;;;;;;;31.20;63.60;100698.13;5090288;27;70176;-36
2021/07/30 04:10:21;;;;;;;1.27;0.82;;;;;;;31.13;63.57;100693.63;5062160;27;65924;-35
2021/07/30 04:13:17;;;;;;;1.83;0.93;;;;;;;31.15;63.59;100705.06;5068431;27;44516;-36
2021/07/30 04:15:50;;;;;;;2.88;1.25;;;;;;;31.22;63.54;100709.59;5060134;28;69772;-35
2021/07/30 04:18:24;;;;;;;1.55;1.08;;;;;;;31.23;62.81;100708.50;5067032;27;65297;-36
2021/07/30 04:21:09;;;;;;;5.72;0.70;;;;;;;31.23;62.92;100705.81;5064177;27;69876;-37
2021/07/30 04:23:43;;;;;;;2.83;0.80;;;;;;;31.18;63.44;100703.78;5064686;28;65547;-38
2021/07/30 04:26:23;;;;;;;1.85;0.70;;;;;;;31.22;63.11;100704.16;5060924;27;70053;-37
2021/07/30 04:28:56;;;;;;;1.45;0.60;;;;;;;31.20;62.98;100708.97;5064631;28;66182;-36
2021/07/30 04:31:30;;;;;;;1.67;0.73;;;;;;;31.22;63.36;100701.44;5063569;28;70360;-36
2021/07/30 04:34:03;;;;;;;4.22;0.80;;;;;;;31.09;63.08;100689.72;5062768;28;65782;-36
2021/07/30 04:36:36;;;;;;;1.60;0.63;;;;;;;31.21;63.33;100695.22;5063651;28;69429;-37
2021/07/30 04:39:16;;;;;;;1.20;0.70;;;;;;;31.24;63.10;100704.78;5059840;27;66304;-37
2021/07/30 04:41:57;;;;;;;1.13;0.73;;;;;;;31.23;63.42;100694.97;5060582;27;70642;-36
2021/07/30 04:44:33;;;;;;;4.38;0.90;;;;;;;31.25;62.95;100703.72;5066628;27;66168;-37
2021/07/30 04:47:09;;;;;;;1.98;0.80;;;;;;;31.26;63.11;100695.38;5060217;28;70527;-37
2021/07/30 04:49:43;;;;;;;2.13;0.88;;;;;;;31.20;63.25;100700.84;5067396;27;66404;-36
2021/07/30 04:52:23;;;;;;;1.80;1.10;;;;;;;31.22;63.24;100687.91;5065519;28;69387;-37
2021/07/30 04:55:03;;;;;;;2.20;1.00;;;;;;;31.28;63.13;100697.81;5063062;27;66047;-36
2021/07/30 04:57:39;;;;;;;6.38;0.90;;;;;;;31.26;63.38;100686.38;5063202;27;71430;-37
2021/07/30 05:00:15;;;;;;;6.88;0.88;;;;;;;31.29;61.84;100694.09;5065347;28;65093;-36
2021/07/30 05:02:53;;;;;;;3.38;1.15;;;;;;;31.22;60.07;100693.31;5060110;27;70315;-37
2021/07/30 05:05:29;;;;;;;2.22;0.80;;;;;;;31.13;58.79;100696.34;5065853;28;66211;-36
2021/07/30 05:08:00;;;;;;;1.13;0.70;;;;;;;31.03;57.74;100695.22;5062804;28;69328;-37
2021/07/30 05:10:33;;;;;;;6.32;0.95;;;;;;;30.93;56.68;100679.50;5033199;28;65214;-36
2021/07/30 05:13:11;;;;;;;2.47;0.65;;;;;;;30.84;55.82;100687.09;5062842;28;70049;-36
2021/07/30 05:16:13;;;;;;;3.38;0.55;;;;;;;30.75;54.35;100679.44;5060732;28;65627;-36
2021/07/30 05:18:53;;;;;;;1.13;0.75;;;;;;;30.70;54.17;100674.69;5066234;28;69988;-36
2021/07/30 05:21:40;;;;;;;4.07;0.90;;;;;;;30.60;53.61;100680.63;5061725;28;66366;-36
2021/07/30 05:24:23;;;;;;;10.38;0.80;;;;;;;30.58;54.33;100673.78;5051205;28;70048;-37
2021/07/30 05:26:57;;;;;;;14.45;1.08;;;;;;;30.51;53.55;100673.84;5052966;28;66190;-37
2021/07/30 05:29:35;;;;;;;17.98;1.08;;;;;;;30.50;54.50;100669.47;5050077;28;69556;-40
2021/07/30 05:32:17;;;;;;;12.45;1.13;;;;;;;30.45;56.53;100678.28;5046218;28;66019;-38
2021/07/30 05:34:57;;;;;;;4.90;1.13;;;;;;;30.46;55.62;100662.88;5052562;27;69005;-38
2021/07/30 05:37:41;;;;;;;10.90;0.88;;;;;;;30.42;54.52;100662.50;5033615;28;66441;-35
2021/07/30 05:40:17;;;;;;;10.55;0.60;;;;;;;30.41;53.91;100660.81;5044227;28;70216;-36
2021/07/30 05:42:56;;;;;;;8.82;0.60;;;;;;;30.38;53.26;100663.16;5045895;28;65473;-36
2021/07/30 05:45:58;;;;;;;17.75;0.60;;;;;;;30.35;52.55;100663.59;5047426;28;70405;-37
2021/07/30 05:48:34;;;;;;;11.63;0.70;;;;;;;30.33;52.08;100661.09;5067352;28;66456;-35
2021/07/30 05:51:09;;;;;;;9.57;0.45;;;;;;;30.32;52.09;100659.44;5046321;28;70513;-36
2021/07/30 05:53:55;;;;;;;2.15;0.40;;;;;;;30.30;51.64;100645.31;5046066;28;65614;-35
2021/07/30 05:56:29;;;;;;;9.70;0.60;;;;;;;30.26;50.72;100652.22;5063258;28;69975;-36
2021/07/30 05:59:01;;;;;;;3.45;0.40;;;;;;;30.26;50.17;100655.75;5044877;28;65519;-35
2021/07/30 06:01:52;;;;;;;1.27;0.40;;;;;;;30.25;50.11;100664.91;5049328;28;69618;-35
2021/07/30 06:04:24;;;;;;;2.65;0.22;;;;;;;30.23;50.37;100658.09;5045789;28;67077;-35
2021/07/30 06:07:10;;;;;;;0.70;0.22;;;;;;;30.21;50.10;100644.72;5052218;28;69352;-34
2021/07/30 06:09:56;;;;;;;2.72;0.20;;;;;;;30.22;50.35;100635.59;5038610;28;66490;-35
2021/07/30 06:12:37;;;;;;;2.13;0.20;;;;;;;30.20;49.64;100636.81;5050874;28;70268;-34
2021/07/30 06:15:41;;;;;;;0.85;0.30;;;;;;;30.20;49.70;100644.94;5048611;28;66686;-35
2021/07/30 06:18:15;;;;;;;5.25;0.40;;;;;;;30.20;49.11;100643.09;5051869;28;69480;-35
2021/07/30 06:20:51;;;;;;;0.38;0.20;;;;;;;30.19;48.17;100646.81;5052639;28;65535;-37
2021/07/30 06:23:39;;;;;;;0.45;0.20;;;;;;;30.13;48.15;100627.97;5050454;28;69887;-34
2021/07/30 06:26:14;;;;;;;0.20;0.20;;;;;;;30.19;47.74;100635.19;5040730;28;67079;-37
2021/07/30 06:28:49;;;;;;;1.42;0.20;;;;;;;30.18;47.93;100628.94;5015714;28;70058;-34
2021/07/30 06:31:21;;;;;;;0.43;0.32;;;;;;;30.21;48.21;100633.91;5028353;28;66307;-35
2021/07/30 06:33:54;;;;;;;1.05;0.20;;;;;;;30.08;48.50;100598.84;5052257;28;70476;-35
2021/07/30 06:36:35;;;;;;;0.65;0.30;;;;;;;30.25;47.85;100618.09;5053361;28;66119;-35
2021/07/30 06:39:07;;;;;;;0.30;0.30;;;;;;;30.24;48.26;100622.69;5053197;28;70043;-34
2021/07/30 06:41:39;;;;;;;1.48;0.40;;;;;;;30.25;47.45;100618.91;5051442;28;65746;-35
2021/07/30 06:44:23;;;;;;;;;;;;;;;30.01;47.65;100619.75;5047462;28;69044;-34
2021/07/30 06:47:08;;;;;;;0.38;0.30;;;;;;;30.28;47.64;100613.09;5049312;28;66582;-35
2021/07/30 06:49:48;;;;;;;0.55;0.30;;;;;;;30.30;47.57;100604.72;5054132;28;69948;-34
2021/07/30 06:52:24;;;;;;;0.10;0.10;;;;;;;30.35;46.40;100601.34;5046521;28;66276;-34
2021/07/30 06:54:59;;;;;;;0.75;0.20;;;;;;;30.36;46.83;100592.19;5063997;27;71117;-39
2021/07/30 06:57:45;;;;;;;0.50;0.25;;;;;;;30.43;46.84;100612.72;5016392;28;65858;-35
2021/07/30 07:00:17;;;;;;;0.60;0.32;;;;;;;30.45;47.29;100591.69;5036460;28;68984;-36
2021/07/30 07:02:50;;;;;;;0.50;0.20;;;;;;;30.46;46.68;100597.91;5049189;28;67046;-35
2021/07/30 07:05:25;;;;;;;0.50;0.30;;;;;;;30.44;45.75;100591.88;5045047;28;70298;-37
2021/07/30 07:07:59;;;;;;;0.90;0.20;;;;;;;30.43;45.31;100577.53;5042862;28;66164;-35
2021/07/30 07:10:33;;;;;;;0.73;0.20;;;;;;;30.48;46.17;100577.69;5046655;28;70130;-35
2021/07/30 07:13:07;;;;;;;0.30;0.20;;;;;;;30.43;45.04;100565.88;5042362;28;65224;-35
2021/07/30 07:15:48;;;;;;;1.00;0.32;;;;;;;30.49;45.85;100564.97;5050422;28;69484;-35
2021/07/30 07:18:20;;;;;;;0.63;0.20;;;;;;;30.47;45.02;100561.66;5049636;28;65731;-35
2021/07/30 07:20:59;;;;;;;0.35;0.20;;;;;;;30.45;45.19;100553.78;5041799;28;70906;-34
2021/07/30 07:23:33;;;;;;;0.20;0.20;;;;;;;30.45;44.90;100547.53;5045424;28;66112;-35
2021/07/30 07:26:10;;;;;;;0.70;0.30;;;;;;;30.43;45.68;100544.22;5047230;28;70292;-35
2021/07/30 07:29:14;;;;;;;0.55;0.30;;;;;;;30.42;46.38;100531.72;5048233;28;66199;-35
2021/07/30 07:31:50;;;;;;;0.30;0.20;;;;;;;30.46;45.32;100538.38;5052232;28;70016;-35
2021/07/30 07:34:25;;;;;;;0.70;0.30;;;;;;;30.48;45.29;100537.09;5049335;28;66304;-34
2021/07/30 07:36:59;;;;;;;0.65;0.22;;;;;;;30.49;45.02;100524.38;5061514;27;70339;-35
2021/07/30 07:39:32;;;;;;;0.63;0.25;;;;;;;30.45;44.58;100537.53;5047570;28;65630;-34
2021/07/30 07:42:03;;;;;;;0.57;0.30;;;;;;;30.43;44.50;100526.13;5033163;28;70155;-34
2021/07/30 07:44:37;;;;;;;0.50;0.20;;;;;;;30.43;44.29;100528.00;5043251;28;64835;-36
2021/07/30 07:47:13;;;;;;;0.35;0.30;;;;;;;30.36;44.57;100511.81;5041423;28;69420;-34
2021/07/30 07:49:47;;;;;;;0.68;0.20;;;;;;;30.39;44.51;100507.84;5041686;28;65712;-34
2021/07/30 07:52:36;;;;;;;4.82;0.20;;;;;;;30.41;44.63;100508.44;5046726;28;70426;-34
2021/07/30 07:55:09;;;;;;;3.83;0.40;;;;;;;30.41;46.55;100495.72;5036432;28;66122;-35
2021/07/30 07:57:49;;;;;;;13.70;0.50;;;;;;;30.44;46.89;100497.16;5045261;28;69483;-35
2021/07/30 08:00:26;;;;;;;3.35;0.30;;;;;;;30.38;46.21;100477.25;5040399;28;65224;-35
2021/07/30 08:02:58;;;;;;;1.08;0.30;;;;;;;30.44;45.70;100492.56;5039554;28;70078;-36
2021/07/30 08:05:42;;;;;;;0.77;0.30;;;;;;;30.41;46.24;100486.78;5041307;28;66557;-34
2021/07/30 08:08:17;;;;;;;6.28;0.38;;;;;;;30.46;45.92;100484.25;5050005;28;70251;-35
2021/07/30 08:10:49;;;;;;;1.77;0.32;;;;;;;30.45;45.92;100482.56;5042721;28;66483;-35
2021/07/30 08:13:26;;;;;;;6.88;0.30;;;;;;;30.51;45.78;100487.09;5047309;28;70448;-36
2021/07/30 08:16:00;;;;;;;3.72;0.40;;;;;;;30.50;46.90;100480.00;5049419;28;66371;-35
2021/07/30 08:18:34;;;;;;;2.65;0.40;;;;;;;30.51;46.26;100487.09;5044939;28;70026;-34
2021/07/30 08:21:05;;;;;;;1.48;0.25;;;;;;;30.49;45.90;100475.66;5040125;28;68651;-35
2021/07/30 08:23:45;;;;;;;1.75;0.30;;;;;;;30.50;45.77;100469.19;5045080;28;70070;-35
2021/07/30 08:26:17;;;;;;;0.95;0.30;;;;;;;30.55;45.80;100477.44;5047508;28;66724;-35
2021/07/30 08:29:03;;;;;;;1.20;0.40;;;;;;;30.64;48.27;100478.78;5048489;28;70204;-36
2021/07/30 08:31:43;;;;;;;5.68;0.50;;;;;;;30.77;49.91;100476.97;5045711;28;66085;-46
2021/07/30 08:34:24;;;;;;;0.60;0.32;;;;;;;30.90;50.01;100476.81;5044431;28;70343;-39
2021/07/30 08:36:56;;;;;;;6.97;0.50;;;;;;;31.01;51.13;100465.19;5030797;28;66445;-36
2021/07/30 08:39:28;;;;;;;4.93;0.40;;;;;;;31.16;51.78;100468.28;5027829;28;69240;-37
2021/07/30 08:42:06;;;;;;;3.85;0.63;;;;;;;31.28;52.55;100470.19;5045373;28;66198;-36
2021/07/30 08:44:41;;;;;;;9.57;0.70;;;;;;;31.16;52.29;100435.78;5046226;28;69095;-37
2021/07/30 08:47:22;;;;;;;13.48;0.60;;;;;;;31.51;53.86;100480.25;5045721;28;66260;-35
2021/07/30 08:50:02;;;;;;;6.35;0.50;;;;;;;31.58;53.63;100470.97;5042349;28;69998;-36
2021/07/30 08:52:42;;;;;;;18.08;0.80;;;;;;;31.69;54.33;100465.78;5044418;28;65775;-35
2021/07/30 08:55:19;;;;;;;7.88;0.60;;;;;;;31.77;54.49;100479.81;5042348;28;70148;-36
2021/07/30 08:57:53;;;;;;;10.13;0.70;;;;;;;31.86;54.50;100499.28;5040914;28;66184;-36
2021/07/30 09:00:25;;;;;;;5.50;0.43;;;;;;;31.89;54.77;100504.22;5057969;28;69757;-35
2021/07/30 09:03:08;;;;;;;5.18;0.40;;;;;;;31.99;54.93;100514.53;5046153;28;65844;-37
2021/07/30 09:05:48;;;;;;;2.47;0.40;;;;;;;32.03;55.28;100511.09;5047763;28;68670;-37
2021/07/30 09:09:02;;;;;;;1.95;0.85;;;;;;;32.11;59.61;100514.50;5050108;28;65736;-35
2021/07/30 09:11:39;;;;;;;1.92;1.02;;;;;;;32.16;60.71;100520.06;5048269;28;69442;-36
2021/07/30 09:14:44;;;;;;;1.80;1.05;;;;;;;32.13;61.68;100517.81;5052945;28;67269;-35
2021/07/30 09:17:40;;;;;;;2.50;1.52;;;;;;;32.20;62.18;100526.66;5047614;28;69783;-36
2021/07/30 09:20:12;;;;;;;7.18;1.85;;;;;;;32.29;61.29;100530.66;5030590;28;65746;-36
2021/07/30 09:22:49;;;;;;;2.65;1.48;;;;;;;32.32;62.18;100534.75;5051956;28;70152;-36
2021/07/30 09:25:39;;;;;;;3.40;1.67;;;;;;;32.33;62.22;100531.81;5051311;28;66092;-35
2021/07/30 09:28:13;;;;;;;2.13;1.15;;;;;;;32.38;61.75;100534.66;5035838;28;70155;-37
2021/07/30 09:30:58;;;;;;;17.77;1.95;;;;;;;32.33;62.16;100531.81;5051851;28;66679;-37
2021/07/30 09:33:33;;;;;;;5.00;1.70;;;;;;;32.43;62.02;100542.06;5052971;28;69327;-36
2021/07/30 09:36:06;;;;;;;2.90;1.88;;;;;;;32.45;61.92;100535.31;5042202;28;65621;-35
2021/07/30 09:38:40;;;;;;;4.72;1.65;;;;;;;32.43;62.09;100521.19;5054605;28;70069;-35
2021/07/30 09:41:23;;;;;;;3.13;1.73;;;;;;;32.44;62.44;100527.44;5050876;28;66449;-37
2021/07/30 09:44:06;;;;;;;3.47;1.98;;;;;;;32.42;62.10;100524.94;5052026;28;70725;-36
2021/07/30 09:46:41;;;;;;;2.50;1.73;;;;;;;32.46;61.57;100531.59;5054768;28;66042;-36
2021/07/30 09:49:34;;;;;;;2.20;1.60;;;;;;;32.44;61.80;100522.84;5039588;28;71307;-35
2021/07/30 09:52:12;;;;;;;2.88;1.90;;;;;;;32.35;61.69;100505.28;5053470;28;65577;-35
2021/07/30 09:54:51;;;;;;;3.35;1.85;;;;;;;32.54;61.31;100543.13;5052960;28;69433;-35
2021/07/30 09:57:27;;;;;;;4.45;2.15;;;;;;;32.56;61.80;100551.88;5049986;28;65430;-35
2021/07/30 10:00:10;;;;;;;2.97;1.73;;;;;;;32.45;61.28;100529.06;5034420;28;70509;-35
2021/07/30 10:02:48;;;;;;;8.38;2.35;;;;;;;32.40;61.43;100521.69;5054877;28;66049;-35
2021/07/30 10:05:35;;;;;;;6.07;2.15;;;;;;;32.57;61.94;100545.38;5049233;28;69669;-36
2021/07/30 10:08:10;;;;;;;3.92;2.00;;;;;;;32.57;62.36;100548.09;5056466;28;65637;-35
2021/07/30 10:10:47;;;;;;;5.75;2.35;;;;;;;32.59;62.23;100545.97;5054435;28;70197;-36
2021/07/30 10:13:27;;;;;;;3.72;2.25;;;;;;;32.58;62.11;100547.84;5053977;28;65865;-36
2021/07/30 10:16:06;;;;;;;3.45;2.17;;;;;;;32.58;62.15;100539.72;5050461;28;68496;-36
2021/07/30 10:18:38;;;;;;;7.68;2.38;;;;;;;32.58;62.93;100549.75;5048442;28;63826;-35
2021/07/30 10:21:18;;;;;;;3.70;2.55;;;;;;;32.40;62.88;100518.97;5052814;28;70193;-36
2021/07/30 10:23:52;;;;;;;3.40;2.80;;;;;;;32.61;62.46;100543.84;5045912;28;66559;-35
2021/07/30 10:26:27;;;;;;;6.78;3.30;;;;;;;32.60;61.77;100553.88;5048949;27;71318;-35
2021/07/30 10:29:07;;;;;;;4.63;2.83;;;;;;;32.59;61.93;100556.81;5046125;28;66384;-35
2021/07/30 10:31:50;;;;;;;4.78;3.17;;;;;;;32.38;62.44;100526.50;5047926;28;69915;-34
2021/07/30 10:34:50;;;;;;;7.18;2.65;;;;;;;32.49;62.34;100563.69;5050591;28;66484;-36
2021/07/30 10:37:35;;;;;;;2.83;2.55;;;;;;;32.53;62.10;100568.66;5043841;28;69205;-35
2021/07/30 10:40:24;;;;;;;5.05;3.00;;;;;;;32.56;61.54;100584.47;5046789;28;66315;-35
2021/07/30 10:43:12;;;;;;;4.10;2.85;;;;;;;32.33;61.78;100548.13;5045582;28;69501;-35
2021/07/30 10:46:08;;;;;;;5.80;3.10;;;;;;;32.45;61.96;100583.38;5048538;28;66310;-35
2021/07/30 10:48:46;;;;;;;6.32;3.08;;;;;;;32.50;61.98;100591.66;5046355;28;70031;-35
2021/07/30 10:51:20;;;;;;;4.50;3.50;;;;;;;32.52;61.63;100580.59;5049226;27;65673;-35
2021/07/30 10:53:51;;;;;;;8.00;5.00;;;;;;;32.47;61.10;100582.09;5048779;28;70040;-35
2021/07/30 10:56:31;;;;;;;5.07;4.00;;;;;;;32.49;61.76;100580.00;5048540;28;65590;-35
2021/07/30 10:59:06;;;;;;;5.47;3.53;;;;;;;32.44;62.14;100582.56;5041375;28;68529;-36
2021/07/30 11:01:36;;;;;;;3.15;2.72;;;;;;;32.43;62.10;100583.63;5043579;28;65737;-36
2021/07/30 11:04:12;;;;;;;3.25;2.95;;;;;;;32.42;62.13;100590.09;5044224;28;70610;-35
2021/07/30 11:06:43;;;;;;;8.68;3.47;;;;;;;32.43;62.08;100597.22;5042965;28;66636;-36
2021/07/30 11:09:18;;;;;;;3.83;3.17;;;;;;;32.40;62.74;100596.84;5043354;28;70152;-36
2021/07/30 11:12:02;;;;;;;7.25;4.22;;;;;;;32.22;62.40;100568.78;5045390;28;65913;-35
2021/07/30 11:14:40;;;;;;;12.50;4.00;;;;;;;32.40;62.77;100616.69;5042662;28;69295;-35
2021/07/30 11:17:13;;;;;;;8.85;3.80;;;;;;;32.37;62.94;100619.84;5043429;28;65724;-36
2021/07/30 11:19:49;;;;;;;10.45;3.70;;;;;;;32.38;63.13;100626.94;5045347;28;70482;-36
2021/07/30 11:22:22;;;;;;;4.20;3.03;;;;;;;32.31;62.57;100638.97;5039535;28;66445;-35
2021/07/30 11:24:53;;;;;;;8.10;2.58;;;;;;;32.21;60.34;100648.53;5042258;28;70824;-35
2021/07/30 11:27:25;;;;;;;3.55;2.53;;;;;;;32.05;59.69;100650.06;5054307;28;66925;-35
2021/07/30 11:29:56;;;;;;;2.47;2.22;;;;;;;31.78;57.75;100632.50;5045781;28;69033;-35
2021/07/30 11:32:29;;;;;;;2.10;1.80;;;;;;;31.77;56.67;100649.84;5048325;28;66441;-38
2021/07/30 11:35:09;;;;;;;2.65;1.50;;;;;;;31.57;55.86;100637.41;5047957;28;70455;-36
2021/07/30 11:37:40;;;;;;;10.70;2.00;;;;;;;31.56;56.36;100660.16;5045423;28;66164;-36
2021/07/30 11:40:18;;;;;;;6.78;1.88;;;;;;;31.43;54.81;100660.34;5042557;28;69369;-35
2021/07/30 11:42:50;;;;;;;3.83;1.63;;;;;;;31.29;55.02;100653.44;5043849;28;65728;-35
2021/07/30 11:45:22;;;;;;;15.32;1.80;;;;;;;31.22;54.09;100677.88;5041401;28;69538;-35
2021/07/30 11:47:54;;;;;;;12.38;2.22;;;;;;;31.10;55.21;100675.13;5040557;28;65579;-36
2021/07/30 11:50:30;;;;;;;9.45;1.83;;;;;;;31.07;54.52;100669.34;5058849;28;70564;-35
2021/07/30 11:53:40;;;;;;;6.68;2.00;;;;;;;30.91;53.18;100670.75;5044193;28;66451;-35
2021/07/30 11:56:10;;;;;;;3.53;2.05;;;;;;;30.90;52.83;100685.38;5040030;28;69332;-38
2021/07/30 11:59:00;;;;;;;4.57;1.20;;;;;;;30.75;52.44;100677.56;5045544;28;65279;-41
2021/07/30 12:01:37;;;;;;;17.23;1.92;;;;;;;30.79;52.84;100680.66;5052613;28;69821;-37
2021/07/30 12:04:10;;;;;;;4.10;1.48;;;;;;;30.66;51.80;100663.50;5044109;28;66214;-35
2021/07/30 12:06:42;;;;;;;5.20;1.88;;;;;;;30.77;52.62;100682.75;5044709;28;69916;-38
2021/07/30 12:09:16;;;;;;;4.40;1.15;;;;;;;30.73;51.42;100680.50;5044595;28;66396;-38
2021/07/30 12:11:53;;;;;;;7.53;1.33;;;;;;;30.76;51.13;100692.78;5043523;28;70390;-36
2021/07/30 12:14:30;;;;;;;9.75;1.63;;;;;;;30.47;50.84;100651.81;5048163;28;66965;-36
2021/07/30 12:17:05;;;;;;;6.63;1.10;;;;;;;30.70;51.00;100691.78;5042690;28;70338;-37